sensor_id;sensor_type;location;lat;lon;timestamp;P1;durP1;ratioP1;P2;durP2;ratioP2
26407;SDS011;14583;43.604;1.364;2024-02-28T00:01:01;11.98;;;4.03;;
26407;SDS011;14583;43.604;1.364;2024-02-28T00:03:27;11.32;;;4.05;;
26407;SDS011;14583;43.604;1.364;2024-02-28T00:05:53;12.15;;;4.18;;
26407;SDS011;14583;43.604;1.364;2024-02-28T00:08:18;17.17;;;4.40;;
26407;SDS011;14583;43.604;1.364;2024-02-28T00:10:45;13.20;;;4.68;;
26407;SDS011;14583;43.604;1.364;2024-02-28T00:13:11;13.63;;;3.83;;
26407;SDS011;14583;43.604;1.364;2024-02-28T00:15:37;11.13;;;4.07;;
26407;SDS011;14583;43.604;1.364;2024-02-28T00:18:03;11.57;;;3.65;;
26407;SDS011;14583;43.604;1.364;2024-02-28T00:20:29;13.80;;;3.88;;
26407;SDS011;14583;43.604;1.364;2024-02-28T00:22:54;16.70;;;3.95;;
26407;SDS011;14583;43.604;1.364;2024-02-28T00:25:20;15.35;;;4.40;;
26407;SDS011;14583;43.604;1.364;2024-02-28T00:27:46;11.05;;;3.60;;
26407;SDS011;14583;43.604;1.364;2024-02-28T00:30:12;17.13;;;4.13;;
26407;SDS011;14583;43.604;1.364;2024-02-28T00:32:38;11.43;;;3.97;;
26407;SDS011;14583;43.604;1.364;2024-02-28T00:35:03;16.33;;;4.30;;
26407;SDS011;14583;43.604;1.364;2024-02-28T00:37:29;12.57;;;3.80;;
26407;SDS011;14583;43.604;1.364;2024-02-28T00:39:55;15.93;;;4.05;;
26407;SDS011;14583;43.604;1.364;2024-02-28T00:42:21;16.40;;;3.92;;
26407;SDS011;14583;43.604;1.364;2024-02-28T00:44:47;14.70;;;3.63;;
26407;SDS011;14583;43.604;1.364;2024-02-28T00:47:12;10.75;;;3.67;;
26407;SDS011;14583;43.604;1.364;2024-02-28T00:49:38;15.57;;;4.32;;
26407;SDS011;14583;43.604;1.364;2024-02-28T00:52:04;16.30;;;3.60;;
26407;SDS011;14583;43.604;1.364;2024-02-28T00:54:30;14.75;;;3.70;;
26407;SDS011;14583;43.604;1.364;2024-02-28T00:56:56;12.57;;;3.40;;
26407;SDS011;14583;43.604;1.364;2024-02-28T00:59:21;15.23;;;3.97;;
26407;SDS011;14583;43.604;1.364;2024-02-28T01:01:48;12.52;;;3.35;;
26407;SDS011;14583;43.604;1.364;2024-02-28T01:04:14;17.67;;;3.42;;
26407;SDS011;14583;43.604;1.364;2024-02-28T01:06:41;17.10;;;4.25;;
26407;SDS011;14583;43.604;1.364;2024-02-28T01:09:06;15.32;;;3.60;;
26407;SDS011;14583;43.604;1.364;2024-02-28T01:11:32;14.32;;;3.38;;
26407;SDS011;14583;43.604;1.364;2024-02-28T01:13:58;13.55;;;3.58;;
26407;SDS011;14583;43.604;1.364;2024-02-28T01:16:31;15.05;;;3.90;;
26407;SDS011;14583;43.604;1.364;2024-02-28T01:18:57;14.65;;;4.25;;
26407;SDS011;14583;43.604;1.364;2024-02-28T01:21:23;15.73;;;3.38;;
26407;SDS011;14583;43.604;1.364;2024-02-28T01:23:48;17.90;;;4.07;;
26407;SDS011;14583;43.604;1.364;2024-02-28T01:26:14;16.20;;;3.53;;
26407;SDS011;14583;43.604;1.364;2024-02-28T01:28:40;15.10;;;3.97;;
26407;SDS011;14583;43.604;1.364;2024-02-28T01:31:07;14.05;;;3.80;;
26407;SDS011;14583;43.604;1.364;2024-02-28T01:33:33;13.45;;;3.67;;
26407;SDS011;14583;43.604;1.364;2024-02-28T01:35:59;12.05;;;3.63;;
26407;SDS011;14583;43.604;1.364;2024-02-28T01:38:24;13.05;;;3.25;;
26407;SDS011;14583;43.604;1.364;2024-02-28T01:40:51;17.23;;;3.60;;
26407;SDS011;14583;43.604;1.364;2024-02-28T01:43:17;13.65;;;4.22;;
26407;SDS011;14583;43.604;1.364;2024-02-28T01:45:43;8.80;;;2.67;;
26407;SDS011;14583;43.604;1.364;2024-02-28T01:48:09;13.88;;;3.75;;
26407;SDS011;14583;43.604;1.364;2024-02-28T01:50:37;12.90;;;3.65;;
26407;SDS011;14583;43.604;1.364;2024-02-28T01:53:03;15.90;;;3.42;;
26407;SDS011;14583;43.604;1.364;2024-02-28T01:55:31;20.55;;;3.60;;
26407;SDS011;14583;43.604;1.364;2024-02-28T01:57:56;14.27;;;3.72;;
26407;SDS011;14583;43.604;1.364;2024-02-28T02:00:23;10.15;;;3.35;;
26407;SDS011;14583;43.604;1.364;2024-02-28T02:02:50;10.93;;;3.45;;
26407;SDS011;14583;43.604;1.364;2024-02-28T02:05:16;11.93;;;3.60;;
26407;SDS011;14583;43.604;1.364;2024-02-28T02:07:45;13.70;;;3.20;;
26407;SDS011;14583;43.604;1.364;2024-02-28T02:10:13;12.55;;;3.25;;
26407;SDS011;14583;43.604;1.364;2024-02-28T02:12:39;16.90;;;3.63;;
26407;SDS011;14583;43.604;1.364;2024-02-28T02:15:05;13.70;;;3.10;;
26407;SDS011;14583;43.604;1.364;2024-02-28T02:17:30;12.90;;;2.90;;
26407;SDS011;14583;43.604;1.364;2024-02-28T02:19:56;16.42;;;3.53;;
26407;SDS011;14583;43.604;1.364;2024-02-28T02:22:23;17.80;;;3.90;;
26407;SDS011;14583;43.604;1.364;2024-02-28T02:24:50;19.95;;;4.10;;
26407;SDS011;14583;43.604;1.364;2024-02-28T02:27:16;12.82;;;3.53;;
26407;SDS011;14583;43.604;1.364;2024-02-28T02:29:42;10.27;;;3.22;;
26407;SDS011;14583;43.604;1.364;2024-02-28T02:32:07;12.18;;;3.58;;
26407;SDS011;14583;43.604;1.364;2024-02-28T02:34:33;10.57;;;2.90;;
26407;SDS011;14583;43.604;1.364;2024-02-28T02:36:59;21.20;;;3.13;;
26407;SDS011;14583;43.604;1.364;2024-02-28T02:39:24;10.43;;;3.17;;
26407;SDS011;14583;43.604;1.364;2024-02-28T02:41:50;10.45;;;3.08;;
26407;SDS011;14583;43.604;1.364;2024-02-28T02:44:16;12.82;;;3.13;;
26407;SDS011;14583;43.604;1.364;2024-02-28T02:46:42;15.85;;;3.35;;
26407;SDS011;14583;43.604;1.364;2024-02-28T02:49:08;11.20;;;2.83;;
26407;SDS011;14583;43.604;1.364;2024-02-28T02:51:34;19.63;;;3.15;;
26407;SDS011;14583;43.604;1.364;2024-02-28T02:54:06;10.50;;;3.47;;
26407;SDS011;14583;43.604;1.364;2024-02-28T02:56:31;16.25;;;3.13;;
26407;SDS011;14583;43.604;1.364;2024-02-28T02:58:57;11.45;;;3.33;;
26407;SDS011;14583;43.604;1.364;2024-02-28T03:01:23;7.43;;;2.70;;
26407;SDS011;14583;43.604;1.364;2024-02-28T03:03:48;14.90;;;3.35;;
26407;SDS011;14583;43.604;1.364;2024-02-28T03:06:17;9.95;;;2.97;;
26407;SDS011;14583;43.604;1.364;2024-02-28T03:08:43;14.60;;;3.58;;
26407;SDS011;14583;43.604;1.364;2024-02-28T03:11:09;14.50;;;3.22;;
26407;SDS011;14583;43.604;1.364;2024-02-28T03:13:36;11.23;;;3.25;;
26407;SDS011;14583;43.604;1.364;2024-02-28T03:16:11;13.38;;;3.25;;
26407;SDS011;14583;43.604;1.364;2024-02-28T03:18:40;13.60;;;3.22;;
26407;SDS011;14583;43.604;1.364;2024-02-28T03:21:14;13.93;;;3.00;;
26407;SDS011;14583;43.604;1.364;2024-02-28T03:23:42;13.30;;;3.33;;
26407;SDS011;14583;43.604;1.364;2024-02-28T03:26:08;16.38;;;3.17;;
26407;SDS011;14583;43.604;1.364;2024-02-28T03:28:34;12.35;;;3.00;;
26407;SDS011;14583;43.604;1.364;2024-02-28T03:31:08;18.05;;;3.45;;
26407;SDS011;14583;43.604;1.364;2024-02-28T03:33:46;10.55;;;2.58;;
26407;SDS011;14583;43.604;1.364;2024-02-28T03:36:12;11.73;;;3.08;;
26407;SDS011;14583;43.604;1.364;2024-02-28T03:38:38;16.73;;;3.78;;
26407;SDS011;14583;43.604;1.364;2024-02-28T03:41:03;9.32;;;3.20;;
26407;SDS011;14583;43.604;1.364;2024-02-28T03:43:30;9.30;;;2.90;;
26407;SDS011;14583;43.604;1.364;2024-02-28T03:45:56;11.80;;;3.38;;
26407;SDS011;14583;43.604;1.364;2024-02-28T03:48:22;10.48;;;2.83;;
26407;SDS011;14583;43.604;1.364;2024-02-28T03:50:47;11.70;;;3.13;;
26407;SDS011;14583;43.604;1.364;2024-02-28T03:53:13;8.98;;;2.88;;
26407;SDS011;14583;43.604;1.364;2024-02-28T03:55:39;18.73;;;3.47;;
26407;SDS011;14583;43.604;1.364;2024-02-28T03:58:05;9.90;;;3.10;;
26407;SDS011;14583;43.604;1.364;2024-02-28T04:00:34;8.90;;;2.90;;
26407;SDS011;14583;43.604;1.364;2024-02-28T04:03:00;11.63;;;3.45;;
26407;SDS011;14583;43.604;1.364;2024-02-28T04:05:26;12.85;;;3.38;;
26407;SDS011;14583;43.604;1.364;2024-02-28T04:07:51;10.52;;;3.00;;
26407;SDS011;14583;43.604;1.364;2024-02-28T04:10:17;13.88;;;3.10;;
26407;SDS011;14583;43.604;1.364;2024-02-28T04:12:43;12.55;;;3.28;;
26407;SDS011;14583;43.604;1.364;2024-02-28T04:15:10;12.32;;;2.97;;
26407;SDS011;14583;43.604;1.364;2024-02-28T04:17:37;13.52;;;3.55;;
26407;SDS011;14583;43.604;1.364;2024-02-28T04:20:03;14.48;;;3.28;;
26407;SDS011;14583;43.604;1.364;2024-02-28T04:22:33;11.90;;;2.97;;
26407;SDS011;14583;43.604;1.364;2024-02-28T04:24:59;12.85;;;3.28;;
26407;SDS011;14583;43.604;1.364;2024-02-28T04:27:24;16.15;;;3.17;;
26407;SDS011;14583;43.604;1.364;2024-02-28T04:29:50;9.57;;;3.17;;
26407;SDS011;14583;43.604;1.364;2024-02-28T04:32:16;12.48;;;3.05;;
26407;SDS011;14583;43.604;1.364;2024-02-28T04:34:42;11.02;;;3.00;;
26407;SDS011;14583;43.604;1.364;2024-02-28T04:37:07;10.10;;;2.72;;
26407;SDS011;14583;43.604;1.364;2024-02-28T04:39:33;12.63;;;2.85;;
26407;SDS011;14583;43.604;1.364;2024-02-28T04:41:59;13.90;;;3.25;;
26407;SDS011;14583;43.604;1.364;2024-02-28T04:44:25;11.68;;;2.65;;
26407;SDS011;14583;43.604;1.364;2024-02-28T04:46:56;10.65;;;2.70;;
26407;SDS011;14583;43.604;1.364;2024-02-28T04:49:22;18.67;;;3.15;;
26407;SDS011;14583;43.604;1.364;2024-02-28T04:52:00;9.80;;;3.13;;
26407;SDS011;14583;43.604;1.364;2024-02-28T04:54:25;11.10;;;2.83;;
26407;SDS011;14583;43.604;1.364;2024-02-28T04:56:51;11.25;;;3.10;;
26407;SDS011;14583;43.604;1.364;2024-02-28T04:59:17;10.20;;;3.35;;
26407;SDS011;14583;43.604;1.364;2024-02-28T05:01:43;8.65;;;2.97;;
26407;SDS011;14583;43.604;1.364;2024-02-28T05:04:10;12.77;;;3.42;;
26407;SDS011;14583;43.604;1.364;2024-02-28T05:06:36;9.57;;;2.88;;
26407;SDS011;14583;43.604;1.364;2024-02-28T05:09:02;15.90;;;3.72;;
26407;SDS011;14583;43.604;1.364;2024-02-28T05:11:28;14.93;;;3.03;;
26407;SDS011;14583;43.604;1.364;2024-02-28T05:13:54;11.05;;;2.80;;
26407;SDS011;14583;43.604;1.364;2024-02-28T05:16:20;13.65;;;3.60;;
26407;SDS011;14583;43.604;1.364;2024-02-28T05:18:45;11.60;;;3.08;;
26407;SDS011;14583;43.604;1.364;2024-02-28T05:21:12;12.02;;;2.58;;
26407;SDS011;14583;43.604;1.364;2024-02-28T05:23:38;11.23;;;3.22;;
26407;SDS011;14583;43.604;1.364;2024-02-28T05:26:04;9.45;;;2.60;;
26407;SDS011;14583;43.604;1.364;2024-02-28T05:28:31;15.95;;;3.80;;
26407;SDS011;14583;43.604;1.364;2024-02-28T05:33:51;8.13;;;2.75;;
26407;SDS011;14583;43.604;1.364;2024-02-28T05:36:19;7.35;;;3.15;;
26407;SDS011;14583;43.604;1.364;2024-02-28T05:38:45;14.27;;;3.50;;
26407;SDS011;14583;43.604;1.364;2024-02-28T05:41:12;16.33;;;3.25;;
26407;SDS011;14583;43.604;1.364;2024-02-28T05:43:38;14.63;;;3.17;;
26407;SDS011;14583;43.604;1.364;2024-02-28T05:46:03;7.65;;;2.78;;
26407;SDS011;14583;43.604;1.364;2024-02-28T05:48:29;9.30;;;2.67;;
26407;SDS011;14583;43.604;1.364;2024-02-28T05:50:55;12.80;;;2.72;;
26407;SDS011;14583;43.604;1.364;2024-02-28T05:53:20;11.60;;;2.88;;
26407;SDS011;14583;43.604;1.364;2024-02-28T05:55:46;10.30;;;3.08;;
26407;SDS011;14583;43.604;1.364;2024-02-28T05:58:13;7.05;;;2.80;;
26407;SDS011;14583;43.604;1.364;2024-02-28T06:00:39;15.10;;;2.90;;
26407;SDS011;14583;43.604;1.364;2024-02-28T06:03:04;16.23;;;3.60;;
26407;SDS011;14583;43.604;1.364;2024-02-28T06:05:30;17.45;;;3.75;;
26407;SDS011;14583;43.604;1.364;2024-02-28T06:07:56;7.47;;;2.78;;
26407;SDS011;14583;43.604;1.364;2024-02-28T06:10:21;14.20;;;3.17;;
26407;SDS011;14583;43.604;1.364;2024-02-28T06:12:47;11.18;;;3.28;;
26407;SDS011;14583;43.604;1.364;2024-02-28T06:15:13;10.02;;;2.90;;
26407;SDS011;14583;43.604;1.364;2024-02-28T06:17:41;20.08;;;3.25;;
26407;SDS011;14583;43.604;1.364;2024-02-28T06:20:07;11.32;;;3.08;;
26407;SDS011;14583;43.604;1.364;2024-02-28T06:22:32;12.07;;;3.30;;
26407;SDS011;14583;43.604;1.364;2024-02-28T06:24:58;11.30;;;3.20;;
26407;SDS011;14583;43.604;1.364;2024-02-28T06:27:24;13.52;;;3.90;;
26407;SDS011;14583;43.604;1.364;2024-02-28T06:29:51;10.95;;;3.63;;
26407;SDS011;14583;43.604;1.364;2024-02-28T06:32:17;12.35;;;3.20;;
26407;SDS011;14583;43.604;1.364;2024-02-28T06:34:43;11.20;;;3.35;;
26407;SDS011;14583;43.604;1.364;2024-02-28T06:37:08;13.82;;;3.65;;
26407;SDS011;14583;43.604;1.364;2024-02-28T06:39:34;10.55;;;3.50;;
26407;SDS011;14583;43.604;1.364;2024-02-28T06:42:00;10.63;;;3.13;;
26407;SDS011;14583;43.604;1.364;2024-02-28T06:44:25;8.38;;;3.50;;
26407;SDS011;14583;43.604;1.364;2024-02-28T06:46:51;14.75;;;3.20;;
26407;SDS011;14583;43.604;1.364;2024-02-28T06:49:17;11.05;;;3.33;;
26407;SDS011;14583;43.604;1.364;2024-02-28T06:51:43;10.10;;;3.15;;
26407;SDS011;14583;43.604;1.364;2024-02-28T06:54:10;7.85;;;2.58;;
26407;SDS011;14583;43.604;1.364;2024-02-28T06:56:36;14.13;;;3.45;;
26407;SDS011;14583;43.604;1.364;2024-02-28T06:59:01;13.15;;;3.28;;
26407;SDS011;14583;43.604;1.364;2024-02-28T07:01:28;9.75;;;3.47;;
26407;SDS011;14583;43.604;1.364;2024-02-28T07:03:54;12.68;;;3.08;;
26407;SDS011;14583;43.604;1.364;2024-02-28T07:06:20;7.20;;;2.55;;
26407;SDS011;14583;43.604;1.364;2024-02-28T07:08:46;12.13;;;3.00;;
26407;SDS011;14583;43.604;1.364;2024-02-28T07:11:15;11.57;;;3.08;;
26407;SDS011;14583;43.604;1.364;2024-02-28T07:13:41;15.52;;;2.90;;
26407;SDS011;14583;43.604;1.364;2024-02-28T07:16:07;9.32;;;2.72;;
26407;SDS011;14583;43.604;1.364;2024-02-28T07:19:03;12.98;;;3.05;;
26407;SDS011;14583;43.604;1.364;2024-02-28T07:21:28;12.07;;;3.25;;
26407;SDS011;14583;43.604;1.364;2024-02-28T07:23:55;13.75;;;3.10;;
26407;SDS011;14583;43.604;1.364;2024-02-28T07:26:21;14.13;;;3.08;;
26407;SDS011;14583;43.604;1.364;2024-02-28T07:28:47;19.98;;;2.80;;
26407;SDS011;14583;43.604;1.364;2024-02-28T07:31:20;11.82;;;3.20;;
26407;SDS011;14583;43.604;1.364;2024-02-28T07:33:47;14.73;;;3.30;;
26407;SDS011;14583;43.604;1.364;2024-02-28T07:36:16;15.43;;;3.65;;
26407;SDS011;14583;43.604;1.364;2024-02-28T07:38:44;9.55;;;2.80;;
26407;SDS011;14583;43.604;1.364;2024-02-28T07:41:10;6.85;;;2.67;;
26407;SDS011;14583;43.604;1.364;2024-02-28T07:43:36;9.15;;;3.03;;
26407;SDS011;14583;43.604;1.364;2024-02-28T07:46:07;8.45;;;2.38;;
26407;SDS011;14583;43.604;1.364;2024-02-28T07:48:34;15.85;;;3.47;;
26407;SDS011;14583;43.604;1.364;2024-02-28T07:51:00;9.73;;;3.03;;
26407;SDS011;14583;43.604;1.364;2024-02-28T07:53:28;11.52;;;3.05;;
26407;SDS011;14583;43.604;1.364;2024-02-28T07:55:54;11.27;;;2.38;;
26407;SDS011;14583;43.604;1.364;2024-02-28T07:58:19;15.00;;;3.20;;
26407;SDS011;14583;43.604;1.364;2024-02-28T08:00:45;10.50;;;2.97;;
26407;SDS011;14583;43.604;1.364;2024-02-28T08:03:11;9.73;;;2.65;;
26407;SDS011;14583;43.604;1.364;2024-02-28T08:05:36;11.85;;;3.00;;
26407;SDS011;14583;43.604;1.364;2024-02-28T08:08:07;7.38;;;2.92;;
26407;SDS011;14583;43.604;1.364;2024-02-28T08:10:33;9.60;;;2.72;;
26407;SDS011;14583;43.604;1.364;2024-02-28T08:13:02;14.20;;;3.67;;
26407;SDS011;14583;43.604;1.364;2024-02-28T08:15:32;8.20;;;3.00;;
26407;SDS011;14583;43.604;1.364;2024-02-28T08:17:58;12.73;;;2.72;;
26407;SDS011;14583;43.604;1.364;2024-02-28T08:20:24;12.40;;;2.80;;
26407;SDS011;14583;43.604;1.364;2024-02-28T08:22:49;15.00;;;3.30;;
26407;SDS011;14583;43.604;1.364;2024-02-28T08:25:17;13.05;;;3.40;;
26407;SDS011;14583;43.604;1.364;2024-02-28T08:27:43;13.38;;;3.30;;
26407;SDS011;14583;43.604;1.364;2024-02-28T08:30:09;12.93;;;2.95;;
26407;SDS011;14583;43.604;1.364;2024-02-28T08:32:35;10.57;;;3.05;;
26407;SDS011;14583;43.604;1.364;2024-02-28T08:35:01;20.00;;;3.95;;
26407;SDS011;14583;43.604;1.364;2024-02-28T08:37:26;11.85;;;3.15;;
26407;SDS011;14583;43.604;1.364;2024-02-28T08:39:53;9.77;;;3.10;;
26407;SDS011;14583;43.604;1.364;2024-02-28T08:42:24;13.98;;;3.00;;
26407;SDS011;14583;43.604;1.364;2024-02-28T08:44:51;19.05;;;3.20;;
26407;SDS011;14583;43.604;1.364;2024-02-28T08:47:17;14.35;;;3.75;;
26407;SDS011;14583;43.604;1.364;2024-02-28T08:49:44;16.13;;;3.35;;
26407;SDS011;14583;43.604;1.364;2024-02-28T08:52:10;10.73;;;3.33;;
26407;SDS011;14583;43.604;1.364;2024-02-28T08:54:35;15.43;;;3.65;;
26407;SDS011;14583;43.604;1.364;2024-02-28T08:57:01;12.23;;;3.30;;
26407;SDS011;14583;43.604;1.364;2024-02-28T08:59:27;14.85;;;3.03;;
26407;SDS011;14583;43.604;1.364;2024-02-28T09:01:53;11.23;;;2.80;;
26407;SDS011;14583;43.604;1.364;2024-02-28T09:04:18;10.40;;;3.55;;
26407;SDS011;14583;43.604;1.364;2024-02-28T09:06:44;15.95;;;3.25;;
26407;SDS011;14583;43.604;1.364;2024-02-28T09:09:09;15.23;;;3.80;;
26407;SDS011;14583;43.604;1.364;2024-02-28T09:11:35;12.68;;;3.65;;
26407;SDS011;14583;43.604;1.364;2024-02-28T09:14:01;12.40;;;2.67;;
26407;SDS011;14583;43.604;1.364;2024-02-28T09:16:27;17.77;;;3.20;;
26407;SDS011;14583;43.604;1.364;2024-02-28T09:18:53;11.40;;;3.00;;
26407;SDS011;14583;43.604;1.364;2024-02-28T09:21:19;9.00;;;2.70;;
26407;SDS011;14583;43.604;1.364;2024-02-28T09:23:45;11.77;;;2.90;;
26407;SDS011;14583;43.604;1.364;2024-02-28T09:26:10;16.58;;;3.38;;
26407;SDS011;14583;43.604;1.364;2024-02-28T09:28:36;9.60;;;3.35;;
26407;SDS011;14583;43.604;1.364;2024-02-28T09:31:02;10.27;;;3.05;;
26407;SDS011;14583;43.604;1.364;2024-02-28T09:33:29;12.77;;;3.70;;
26407;SDS011;14583;43.604;1.364;2024-02-28T09:35:54;7.85;;;2.90;;
26407;SDS011;14583;43.604;1.364;2024-02-28T09:38:20;14.55;;;3.13;;
26407;SDS011;14583;43.604;1.364;2024-02-28T09:40:46;7.47;;;2.90;;
26407;SDS011;14583;43.604;1.364;2024-02-28T09:43:28;11.27;;;2.92;;
26407;SDS011;14583;43.604;1.364;2024-02-28T09:46:08;11.25;;;3.22;;
26407;SDS011;14583;43.604;1.364;2024-02-28T09:48:40;11.73;;;2.72;;
26407;SDS011;14583;43.604;1.364;2024-02-28T09:51:06;15.18;;;2.50;;
26407;SDS011;14583;43.604;1.364;2024-02-28T09:53:33;11.43;;;2.90;;
26407;SDS011;14583;43.604;1.364;2024-02-28T09:55:59;8.82;;;2.72;;
26407;SDS011;14583;43.604;1.364;2024-02-28T09:58:24;16.20;;;3.25;;
26407;SDS011;14583;43.604;1.364;2024-02-28T10:00:51;6.10;;;2.38;;
26407;SDS011;14583;43.604;1.364;2024-02-28T10:03:20;9.35;;;2.53;;
26407;SDS011;14583;43.604;1.364;2024-02-28T10:05:47;9.45;;;2.60;;
26407;SDS011;14583;43.604;1.364;2024-02-28T10:08:16;11.85;;;2.92;;
26407;SDS011;14583;43.604;1.364;2024-02-28T10:10:45;11.35;;;2.85;;
26407;SDS011;14583;43.604;1.364;2024-02-28T10:13:16;14.25;;;2.95;;
26407;SDS011;14583;43.604;1.364;2024-02-28T10:15:42;10.05;;;2.50;;
26407;SDS011;14583;43.604;1.364;2024-02-28T10:18:08;13.00;;;2.78;;
26407;SDS011;14583;43.604;1.364;2024-02-28T10:20:34;10.05;;;2.45;;
26407;SDS011;14583;43.604;1.364;2024-02-28T10:23:03;7.63;;;2.53;;
26407;SDS011;14583;43.604;1.364;2024-02-28T10:25:41;8.98;;;2.38;;
26407;SDS011;14583;43.604;1.364;2024-02-28T10:28:11;11.45;;;2.40;;
26407;SDS011;14583;43.604;1.364;2024-02-28T10:30:39;12.15;;;2.88;;
26407;SDS011;14583;43.604;1.364;2024-02-28T10:33:11;10.60;;;2.60;;
26407;SDS011;14583;43.604;1.364;2024-02-28T10:35:43;11.27;;;2.75;;
26407;SDS011;14583;43.604;1.364;2024-02-28T10:38:10;13.45;;;2.55;;
26407;SDS011;14583;43.604;1.364;2024-02-28T10:40:37;15.90;;;3.22;;
26407;SDS011;14583;43.604;1.364;2024-02-28T10:43:07;10.05;;;2.75;;
26407;SDS011;14583;43.604;1.364;2024-02-28T10:45:35;8.75;;;2.20;;
26407;SDS011;14583;43.604;1.364;2024-02-28T10:48:04;8.18;;;2.35;;
26407;SDS011;14583;43.604;1.364;2024-02-28T10:50:31;12.55;;;2.88;;
26407;SDS011;14583;43.604;1.364;2024-02-28T10:53:00;13.77;;;2.97;;
26407;SDS011;14583;43.604;1.364;2024-02-28T10:55:33;10.80;;;2.78;;
26407;SDS011;14583;43.604;1.364;2024-02-28T10:58:08;13.55;;;2.78;;
26407;SDS011;14583;43.604;1.364;2024-02-28T11:00:35;11.63;;;2.83;;
26407;SDS011;14583;43.604;1.364;2024-02-28T11:03:03;9.50;;;2.58;;
26407;SDS011;14583;43.604;1.364;2024-02-28T11:05:44;9.07;;;2.53;;
26407;SDS011;14583;43.604;1.364;2024-02-28T11:11:04;13.15;;;2.50;;
26407;SDS011;14583;43.604;1.364;2024-02-28T11:13:29;7.93;;;2.25;;
26407;SDS011;14583;43.604;1.364;2024-02-28T11:16:10;3.13;;;1.70;;
26407;SDS011;14583;43.604;1.364;2024-02-28T11:18:36;8.25;;;2.65;;
26407;SDS011;14583;43.604;1.364;2024-02-28T11:21:17;7.22;;;2.10;;
26407;SDS011;14583;43.604;1.364;2024-02-28T11:23:45;7.25;;;2.28;;
26407;SDS011;14583;43.604;1.364;2024-02-28T11:26:12;7.93;;;2.40;;
26407;SDS011;14583;43.604;1.364;2024-02-28T11:28:39;11.70;;;2.50;;
26407;SDS011;14583;43.604;1.364;2024-02-28T11:31:05;7.43;;;2.17;;
26407;SDS011;14583;43.604;1.364;2024-02-28T11:33:31;11.00;;;2.45;;
26407;SDS011;14583;43.604;1.364;2024-02-28T11:35:58;8.13;;;2.38;;
26407;SDS011;14583;43.604;1.364;2024-02-28T11:38:27;7.68;;;2.50;;
26407;SDS011;14583;43.604;1.364;2024-02-28T11:40:53;7.78;;;1.90;;
26407;SDS011;14583;43.604;1.364;2024-02-28T11:43:20;4.93;;;2.05;;
26407;SDS011;14583;43.604;1.364;2024-02-28T11:45:46;6.20;;;1.98;;
26407;SDS011;14583;43.604;1.364;2024-02-28T11:48:15;7.25;;;1.70;;
26407;SDS011;14583;43.604;1.364;2024-02-28T11:50:41;5.72;;;1.85;;
26407;SDS011;14583;43.604;1.364;2024-02-28T11:53:07;3.88;;;1.85;;
26407;SDS011;14583;43.604;1.364;2024-02-28T11:55:33;8.07;;;1.73;;
26407;SDS011;14583;43.604;1.364;2024-02-28T11:57:59;3.97;;;1.60;;
26407;SDS011;14583;43.604;1.364;2024-02-28T12:00:25;6.47;;;2.08;;
26407;SDS011;14583;43.604;1.364;2024-02-28T12:02:51;6.85;;;2.25;;
26407;SDS011;14583;43.604;1.364;2024-02-28T12:05:19;7.55;;;2.05;;
26407;SDS011;14583;43.604;1.364;2024-02-28T12:07:45;7.32;;;2.17;;
26407;SDS011;14583;43.604;1.364;2024-02-28T12:10:11;6.35;;;1.83;;
26407;SDS011;14583;43.604;1.364;2024-02-28T12:12:38;5.25;;;2.03;;
26407;SDS011;14583;43.604;1.364;2024-02-28T12:15:05;4.90;;;1.80;;
26407;SDS011;14583;43.604;1.364;2024-02-28T12:17:31;7.55;;;2.03;;
26407;SDS011;14583;43.604;1.364;2024-02-28T12:20:00;6.18;;;1.80;;
26407;SDS011;14583;43.604;1.364;2024-02-28T12:22:26;5.20;;;1.70;;
26407;SDS011;14583;43.604;1.364;2024-02-28T12:24:52;4.20;;;1.48;;
26407;SDS011;14583;43.604;1.364;2024-02-28T12:27:18;4.38;;;1.67;;
26407;SDS011;14583;43.604;1.364;2024-02-28T12:29:45;10.00;;;1.60;;
26407;SDS011;14583;43.604;1.364;2024-02-28T12:32:10;3.72;;;1.60;;
26407;SDS011;14583;43.604;1.364;2024-02-28T12:34:37;5.95;;;1.55;;
26407;SDS011;14583;43.604;1.364;2024-02-28T12:37:03;4.82;;;1.40;;
26407;SDS011;14583;43.604;1.364;2024-02-28T12:39:30;3.40;;;1.42;;
26407;SDS011;14583;43.604;1.364;2024-02-28T12:41:59;4.97;;;1.67;;
26407;SDS011;14583;43.604;1.364;2024-02-28T12:44:25;4.65;;;1.52;;
26407;SDS011;14583;43.604;1.364;2024-02-28T12:46:51;7.38;;;1.70;;
26407;SDS011;14583;43.604;1.364;2024-02-28T12:49:17;4.43;;;1.48;;
26407;SDS011;14583;43.604;1.364;2024-02-28T12:51:43;4.68;;;1.50;;
26407;SDS011;14583;43.604;1.364;2024-02-28T12:54:11;3.45;;;1.20;;
26407;SDS011;14583;43.604;1.364;2024-02-28T12:56:39;3.20;;;1.33;;
26407;SDS011;14583;43.604;1.364;2024-02-28T12:59:08;5.00;;;1.45;;
26407;SDS011;14583;43.604;1.364;2024-02-28T13:01:34;5.00;;;1.25;;
26407;SDS011;14583;43.604;1.364;2024-02-28T13:04:01;4.45;;;1.40;;
26407;SDS011;14583;43.604;1.364;2024-02-28T13:06:27;3.80;;;1.35;;
26407;SDS011;14583;43.604;1.364;2024-02-28T13:08:52;4.03;;;1.30;;
26407;SDS011;14583;43.604;1.364;2024-02-28T13:11:19;5.78;;;1.45;;
26407;SDS011;14583;43.604;1.364;2024-02-28T13:13:46;8.15;;;1.58;;
26407;SDS011;14583;43.604;1.364;2024-02-28T13:16:12;4.72;;;1.52;;
26407;SDS011;14583;43.604;1.364;2024-02-28T13:18:38;4.85;;;1.50;;
26407;SDS011;14583;43.604;1.364;2024-02-28T13:21:04;3.47;;;1.52;;
26407;SDS011;14583;43.604;1.364;2024-02-28T13:23:30;3.72;;;1.48;;
26407;SDS011;14583;43.604;1.364;2024-02-28T13:25:59;7.10;;;1.40;;
26407;SDS011;14583;43.604;1.364;2024-02-28T13:28:26;4.10;;;1.40;;
26407;SDS011;14583;43.604;1.364;2024-02-28T13:30:58;2.13;;;1.35;;
26407;SDS011;14583;43.604;1.364;2024-02-28T13:33:25;2.40;;;1.15;;
26407;SDS011;14583;43.604;1.364;2024-02-28T13:35:52;3.33;;;1.08;;
26407;SDS011;14583;43.604;1.364;2024-02-28T13:38:18;3.00;;;1.20;;
26407;SDS011;14583;43.604;1.364;2024-02-28T13:40:45;4.00;;;1.40;;
26407;SDS011;14583;43.604;1.364;2024-02-28T13:43:15;3.65;;;1.20;;
26407;SDS011;14583;43.604;1.364;2024-02-28T13:45:48;4.82;;;1.27;;
26407;SDS011;14583;43.604;1.364;2024-02-28T13:48:20;4.45;;;1.50;;
26407;SDS011;14583;43.604;1.364;2024-02-28T13:50:47;6.50;;;1.48;;
26407;SDS011;14583;43.604;1.364;2024-02-28T13:53:14;4.78;;;1.73;;
26407;SDS011;14583;43.604;1.364;2024-02-28T13:55:46;2.50;;;1.23;;
26407;SDS011;14583;43.604;1.364;2024-02-28T13:58:12;4.25;;;1.27;;
26407;SDS011;14583;43.604;1.364;2024-02-28T14:00:39;3.33;;;1.35;;
26407;SDS011;14583;43.604;1.364;2024-02-28T14:03:05;6.28;;;1.42;;
26407;SDS011;14583;43.604;1.364;2024-02-28T14:05:31;3.35;;;1.23;;
26407;SDS011;14583;43.604;1.364;2024-02-28T14:07:57;4.32;;;1.10;;
26407;SDS011;14583;43.604;1.364;2024-02-28T14:10:23;2.88;;;1.10;;
26407;SDS011;14583;43.604;1.364;2024-02-28T14:12:49;2.92;;;1.10;;
26407;SDS011;14583;43.604;1.364;2024-02-28T14:15:18;6.35;;;1.42;;
26407;SDS011;14583;43.604;1.364;2024-02-28T14:17:44;2.67;;;1.10;;
26407;SDS011;14583;43.604;1.364;2024-02-28T14:20:10;6.15;;;1.42;;
26407;SDS011;14583;43.604;1.364;2024-02-28T14:22:36;2.72;;;1.10;;
26407;SDS011;14583;43.604;1.364;2024-02-28T14:25:01;2.28;;;1.23;;
26407;SDS011;14583;43.604;1.364;2024-02-28T14:27:29;4.63;;;1.30;;
26407;SDS011;14583;43.604;1.364;2024-02-28T14:29:58;4.00;;;1.00;;
26407;SDS011;14583;43.604;1.364;2024-02-28T14:32:23;2.50;;;1.13;;
26407;SDS011;14583;43.604;1.364;2024-02-28T14:34:49;5.03;;;1.38;;
26407;SDS011;14583;43.604;1.364;2024-02-28T14:37:16;4.75;;;1.25;;
26407;SDS011;14583;43.604;1.364;2024-02-28T14:39:42;4.45;;;1.58;;
26407;SDS011;14583;43.604;1.364;2024-02-28T14:42:08;2.33;;;1.30;;